Whitworth, United Kingdom
Current Conditions -  °F | °C
As of 6:20 PM on Wednesday 26 Nov 2014 (Local Time) from EGCC Reporting Station
Broken Clouds Broken Clouds  
Wind Chill: 45°   Ceiling: 1500
Heat Index: 45°   Visibility: 6mi
Dew Point: 43°   Wind: 3mph
Humidity: 93%   Direction: 80°E
Pressure: 29.83"   Gusts: NA
Location:  53.66°N, 2.18°W
Report Text: EGCC 261820Z 08003KT 9000 SCT010 BKN015 BKN024 07/06 Q1010 NOSIG
Loading
Personal Weather Stations






























Interactive Weather Map New forecast layout! Learn more

10-Day Weather Forecast

Advertisements
Track Severe Weather on mobile